sensor_id;sensor_type;location;lat;lon;timestamp;temperature;humidity
78516;SHT31;67815;51.990;5.688;2024-03-06T00:01:10;9.6;70.1
78516;SHT31;67815;51.990;5.688;2024-03-06T00:03:40;9.6;70.1
78516;SHT31;67815;51.990;5.688;2024-03-06T00:06:09;9.5;70.0
78516;SHT31;67815;51.990;5.688;2024-03-06T00:08:39;9.5;70.0
78516;SHT31;67815;51.990;5.688;2024-03-06T00:11:10;9.5;70.0
78516;SHT31;67815;51.990;5.688;2024-03-06T00:13:40;9.5;70.1
78516;SHT31;67815;51.990;5.688;2024-03-06T00:16:10;9.4;70.0
78516;SHT31;67815;51.990;5.688;2024-03-06T00:18:39;9.4;70.0
78516;SHT31;67815;51.990;5.688;2024-03-06T00:21:09;9.4;70.0
78516;SHT31;67815;51.990;5.688;2024-03-06T00:23:39;9.4;70.0
78516;SHT31;67815;51.990;5.688;2024-03-06T00:26:09;9.4;70.0
78516;SHT31;67815;51.990;5.688;2024-03-06T00:28:38;9.3;70.0
78516;SHT31;67815;51.990;5.688;2024-03-06T00:31:08;9.3;70.2
78516;SHT31;67815;51.990;5.688;2024-03-06T00:33:38;9.3;70.1
78516;SHT31;67815;51.990;5.688;2024-03-06T00:36:08;9.3;70.0
78516;SHT31;67815;51.990;5.688;2024-03-06T00:38:37;9.3;70.0
78516;SHT31;67815;51.990;5.688;2024-03-06T00:41:07;9.2;69.9
78516;SHT31;67815;51.990;5.688;2024-03-06T00:43:38;9.2;69.7
78516;SHT31;67815;51.990;5.688;2024-03-06T00:46:08;9.2;69.7
78516;SHT31;67815;51.990;5.688;2024-03-06T00:48:38;9.2;69.8
78516;SHT31;67815;51.990;5.688;2024-03-06T00:51:10;9.1;69.7
78516;SHT31;67815;51.990;5.688;2024-03-06T00:53:39;9.1;69.8
78516;SHT31;67815;51.990;5.688;2024-03-06T00:56:09;9.1;69.8
78516;SHT31;67815;51.990;5.688;2024-03-06T00:58:38;9.1;69.8
78516;SHT31;67815;51.990;5.688;2024-03-06T01:01:08;9.1;70.1
78516;SHT31;67815;51.990;5.688;2024-03-06T01:03:39;9.0;70.2
78516;SHT31;67815;51.990;5.688;2024-03-06T01:06:08;9.0;70.4
78516;SHT31;67815;51.990;5.688;2024-03-06T01:08:38;9.0;70.4
78516;SHT31;67815;51.990;5.688;2024-03-06T01:11:08;9.0;70.5
78516;SHT31;67815;51.990;5.688;2024-03-06T01:13:42;9.0;70.4
78516;SHT31;67815;51.990;5.688;2024-03-06T01:16:12;9.0;70.6
78516;SHT31;67815;51.990;5.688;2024-03-06T01:18:42;8.9;70.5
78516;SHT31;67815;51.990;5.688;2024-03-06T01:21:11;8.9;70.4
78516;SHT31;67815;51.990;5.688;2024-03-06T01:23:41;8.9;70.4
78516;SHT31;67815;51.990;5.688;2024-03-06T01:26:11;8.9;70.5
78516;SHT31;67815;51.990;5.688;2024-03-06T01:28:42;8.9;70.5
78516;SHT31;67815;51.990;5.688;2024-03-06T01:31:12;8.9;70.3
78516;SHT31;67815;51.990;5.688;2024-03-06T01:33:41;8.9;70.3
78516;SHT31;67815;51.990;5.688;2024-03-06T01:36:11;8.9;70.1
78516;SHT31;67815;51.990;5.688;2024-03-06T01:38:42;8.9;70.0
78516;SHT31;67815;51.990;5.688;2024-03-06T01:41:14;8.9;69.9
78516;SHT31;67815;51.990;5.688;2024-03-06T01:43:44;8.8;70.0
78516;SHT31;67815;51.990;5.688;2024-03-06T01:46:14;8.8;70.1
78516;SHT31;67815;51.990;5.688;2024-03-06T01:48:44;8.8;70.2
78516;SHT31;67815;51.990;5.688;2024-03-06T01:51:14;8.8;70.3
78516;SHT31;67815;51.990;5.688;2024-03-06T01:53:44;8.7;70.3
78516;SHT31;67815;51.990;5.688;2024-03-06T01:56:15;8.7;70.5
78516;SHT31;67815;51.990;5.688;2024-03-06T01:58:47;8.7;70.6
78516;SHT31;67815;51.990;5.688;2024-03-06T02:03:52;8.7;70.6
78516;SHT31;67815;51.990;5.688;2024-03-06T02:06:25;8.6;70.5
78516;SHT31;67815;51.990;5.688;2024-03-06T02:08:55;8.6;70.4
78516;SHT31;67815;51.990;5.688;2024-03-06T02:11:24;8.6;70.4
78516;SHT31;67815;51.990;5.688;2024-03-06T02:13:56;8.6;70.4
78516;SHT31;67815;51.990;5.688;2024-03-06T02:16:26;8.6;70.3
78516;SHT31;67815;51.990;5.688;2024-03-06T02:18:57;8.5;70.6
78516;SHT31;67815;51.990;5.688;2024-03-06T02:21:26;8.5;70.6
78516;SHT31;67815;51.990;5.688;2024-03-06T02:23:56;8.5;70.7
78516;SHT31;67815;51.990;5.688;2024-03-06T02:26:26;8.5;70.9
78516;SHT31;67815;51.990;5.688;2024-03-06T02:28:56;8.4;71.2
78516;SHT31;67815;51.990;5.688;2024-03-06T02:31:26;8.4;71.0
78516;SHT31;67815;51.990;5.688;2024-03-06T02:33:55;8.4;71.0
78516;SHT31;67815;51.990;5.688;2024-03-06T02:36:26;8.4;70.9
78516;SHT31;67815;51.990;5.688;2024-03-06T02:38:57;8.4;70.8
78516;SHT31;67815;51.990;5.688;2024-03-06T02:41:29;8.4;70.8
78516;SHT31;67815;51.990;5.688;2024-03-06T02:43:58;8.4;70.8
78516;SHT31;67815;51.990;5.688;2024-03-06T02:46:28;8.3;70.8
78516;SHT31;67815;51.990;5.688;2024-03-06T02:49:00;8.3;70.9
78516;SHT31;67815;51.990;5.688;2024-03-06T02:51:30;8.3;70.9
78516;SHT31;67815;51.990;5.688;2024-03-06T02:53:59;8.3;70.9
78516;SHT31;67815;51.990;5.688;2024-03-06T02:56:29;8.3;71.1
78516;SHT31;67815;51.990;5.688;2024-03-06T02:58:58;8.2;70.8
78516;SHT31;67815;51.990;5.688;2024-03-06T03:01:30;8.2;70.8
78516;SHT31;67815;51.990;5.688;2024-03-06T03:04:00;8.2;70.9
78516;SHT31;67815;51.990;5.688;2024-03-06T03:06:30;8.2;71.0
78516;SHT31;67815;51.990;5.688;2024-03-06T03:08:59;8.2;71.1
78516;SHT31;67815;51.990;5.688;2024-03-06T03:11:31;8.1;71.2
78516;SHT31;67815;51.990;5.688;2024-03-06T03:14:01;8.1;71.5
78516;SHT31;67815;51.990;5.688;2024-03-06T03:16:31;8.1;71.9
78516;SHT31;67815;51.990;5.688;2024-03-06T03:19:00;8.1;71.8
78516;SHT31;67815;51.990;5.688;2024-03-06T03:21:32;8.1;71.8
78516;SHT31;67815;51.990;5.688;2024-03-06T03:24:01;8.1;71.8
78516;SHT31;67815;51.990;5.688;2024-03-06T03:26:31;8.1;71.7
78516;SHT31;67815;51.990;5.688;2024-03-06T03:29:00;8.1;71.7
78516;SHT31;67815;51.990;5.688;2024-03-06T03:31:30;8.1;71.1
78516;SHT31;67815;51.990;5.688;2024-03-06T03:34:02;8.1;71.5
78516;SHT31;67815;51.990;5.688;2024-03-06T03:36:32;8.1;71.7
78516;SHT31;67815;51.990;5.688;2024-03-06T03:39:02;8.1;71.7
78516;SHT31;67815;51.990;5.688;2024-03-06T03:41:37;8.1;71.6
78516;SHT31;67815;51.990;5.688;2024-03-06T03:44:07;8.1;71.7
78516;SHT31;67815;51.990;5.688;2024-03-06T03:46:36;8.1;71.6
78516;SHT31;67815;51.990;5.688;2024-03-06T03:49:06;8.1;71.5
78516;SHT31;67815;51.990;5.688;2024-03-06T03:51:38;8.1;71.5
78516;SHT31;67815;51.990;5.688;2024-03-06T03:54:08;8.1;71.4
78516;SHT31;67815;51.990;5.688;2024-03-06T03:56:39;8.0;71.2
78516;SHT31;67815;51.990;5.688;2024-03-06T03:59:09;8.0;71.0
78516;SHT31;67815;51.990;5.688;2024-03-06T04:01:38;8.0;70.8
78516;SHT31;67815;51.990;5.688;2024-03-06T04:04:10;8.0;70.6
78516;SHT31;67815;51.990;5.688;2024-03-06T04:06:39;8.0;70.4
78516;SHT31;67815;51.990;5.688;2024-03-06T04:09:09;8.0;70.3
78516;SHT31;67815;51.990;5.688;2024-03-06T04:11:39;8.0;70.2
78516;SHT31;67815;51.990;5.688;2024-03-06T04:14:09;8.0;70.3
78516;SHT31;67815;51.990;5.688;2024-03-06T04:16:38;7.9;70.1
78516;SHT31;67815;51.990;5.688;2024-03-06T04:19:08;7.9;70.4
78516;SHT31;67815;51.990;5.688;2024-03-06T04:21:42;7.9;70.7
78516;SHT31;67815;51.990;5.688;2024-03-06T04:24:12;7.8;70.8
78516;SHT31;67815;51.990;5.688;2024-03-06T04:26:42;7.8;70.8
78516;SHT31;67815;51.990;5.688;2024-03-06T04:29:12;7.8;70.6
78516;SHT31;67815;51.990;5.688;2024-03-06T04:31:41;7.8;70.6
78516;SHT31;67815;51.990;5.688;2024-03-06T04:34:11;7.8;70.6
78516;SHT31;67815;51.990;5.688;2024-03-06T04:36:40;7.7;70.7
78516;SHT31;67815;51.990;5.688;2024-03-06T04:39:10;7.7;70.7
78516;SHT31;67815;51.990;5.688;2024-03-06T04:41:41;7.7;70.8
78516;SHT31;67815;51.990;5.688;2024-03-06T04:44:11;7.7;70.9
78516;SHT31;67815;51.990;5.688;2024-03-06T04:46:40;7.7;71.2
78516;SHT31;67815;51.990;5.688;2024-03-06T04:49:10;7.7;71.1
78516;SHT31;67815;51.990;5.688;2024-03-06T04:51:39;7.7;71.2
78516;SHT31;67815;51.990;5.688;2024-03-06T04:54:09;7.6;71.2
78516;SHT31;67815;51.990;5.688;2024-03-06T04:56:38;7.6;71.2
78516;SHT31;67815;51.990;5.688;2024-03-06T04:59:08;7.6;71.3
78516;SHT31;67815;51.990;5.688;2024-03-06T05:01:37;7.6;71.3
78516;SHT31;67815;51.990;5.688;2024-03-06T05:04:07;7.6;71.4
78516;SHT31;67815;51.990;5.688;2024-03-06T05:06:37;7.6;71.5
78516;SHT31;67815;51.990;5.688;2024-03-06T05:09:06;7.6;71.5
78516;SHT31;67815;51.990;5.688;2024-03-06T05:11:39;7.6;71.7
78516;SHT31;67815;51.990;5.688;2024-03-06T05:14:08;7.6;71.6
78516;SHT31;67815;51.990;5.688;2024-03-06T05:16:38;7.6;71.7
78516;SHT31;67815;51.990;5.688;2024-03-06T05:19:09;7.6;71.7
78516;SHT31;67815;51.990;5.688;2024-03-06T05:21:40;7.6;71.8
78516;SHT31;67815;51.990;5.688;2024-03-06T05:24:11;7.6;71.7
78516;SHT31;67815;51.990;5.688;2024-03-06T05:26:40;7.5;71.8
78516;SHT31;67815;51.990;5.688;2024-03-06T05:29:10;7.5;71.8
78516;SHT31;67815;51.990;5.688;2024-03-06T05:31:41;7.5;71.7
78516;SHT31;67815;51.990;5.688;2024-03-06T05:34:11;7.5;71.9
78516;SHT31;67815;51.990;5.688;2024-03-06T05:36:41;7.5;71.9
78516;SHT31;67815;51.990;5.688;2024-03-06T05:39:10;7.5;71.8
78516;SHT31;67815;51.990;5.688;2024-03-06T05:41:41;7.5;72.1
78516;SHT31;67815;51.990;5.688;2024-03-06T05:44:11;7.5;72.3
78516;SHT31;67815;51.990;5.688;2024-03-06T05:46:40;7.5;72.4
78516;SHT31;67815;51.990;5.688;2024-03-06T05:49:10;7.5;72.4
78516;SHT31;67815;51.990;5.688;2024-03-06T05:51:39;7.5;72.5
78516;SHT31;67815;51.990;5.688;2024-03-06T05:54:11;7.5;72.7
78516;SHT31;67815;51.990;5.688;2024-03-06T05:56:40;7.5;72.8
78516;SHT31;67815;51.990;5.688;2024-03-06T05:59:10;7.5;72.9
78516;SHT31;67815;51.990;5.688;2024-03-06T06:01:41;7.5;73.0
78516;SHT31;67815;51.990;5.688;2024-03-06T06:04:12;7.5;73.0
78516;SHT31;67815;51.990;5.688;2024-03-06T06:06:42;7.5;72.6
78516;SHT31;67815;51.990;5.688;2024-03-06T06:09:11;7.5;72.9
78516;SHT31;67815;51.990;5.688;2024-03-06T06:11:44;7.5;73.2
78516;SHT31;67815;51.990;5.688;2024-03-06T06:14:15;7.5;73.4
78516;SHT31;67815;51.990;5.688;2024-03-06T06:16:44;7.5;73.6
78516;SHT31;67815;51.990;5.688;2024-03-06T06:19:16;7.5;73.4
78516;SHT31;67815;51.990;5.688;2024-03-06T06:21:47;7.5;73.3
78516;SHT31;67815;51.990;5.688;2024-03-06T06:24:19;7.5;73.3
78516;SHT31;67815;51.990;5.688;2024-03-06T06:26:50;7.5;73.3
78516;SHT31;67815;51.990;5.688;2024-03-06T06:29:20;7.5;73.2
78516;SHT31;67815;51.990;5.688;2024-03-06T06:31:49;7.5;73.4
78516;SHT31;67815;51.990;5.688;2024-03-06T06:34:19;7.5;73.6
78516;SHT31;67815;51.990;5.688;2024-03-06T06:36:48;7.5;73.8
78516;SHT31;67815;51.990;5.688;2024-03-06T06:39:20;7.5;73.9
78516;SHT31;67815;51.990;5.688;2024-03-06T06:41:49;7.5;74.0
78516;SHT31;67815;51.990;5.688;2024-03-06T06:44:19;7.5;74.2
78516;SHT31;67815;51.990;5.688;2024-03-06T06:46:48;7.5;74.1
78516;SHT31;67815;51.990;5.688;2024-03-06T06:49:18;7.5;74.2
78516;SHT31;67815;51.990;5.688;2024-03-06T06:51:48;7.5;74.3
78516;SHT31;67815;51.990;5.688;2024-03-06T06:54:17;7.5;74.4
78516;SHT31;67815;51.990;5.688;2024-03-06T06:56:47;7.5;74.6
78516;SHT31;67815;51.990;5.688;2024-03-06T06:59:17;7.6;74.7
78516;SHT31;67815;51.990;5.688;2024-03-06T07:01:47;7.6;74.8
78516;SHT31;67815;51.990;5.688;2024-03-06T07:04:17;7.6;75.1
78516;SHT31;67815;51.990;5.688;2024-03-06T07:06:47;7.6;75.6
78516;SHT31;67815;51.990;5.688;2024-03-06T07:09:17;7.6;75.8
78516;SHT31;67815;51.990;5.688;2024-03-06T07:11:46;7.7;75.9
78516;SHT31;67815;51.990;5.688;2024-03-06T07:14:18;7.7;76.1
78516;SHT31;67815;51.990;5.688;2024-03-06T07:16:49;7.7;76.2
78516;SHT31;67815;51.990;5.688;2024-03-06T07:19:18;7.8;76.2
78516;SHT31;67815;51.990;5.688;2024-03-06T07:21:47;7.8;76.0
78516;SHT31;67815;51.990;5.688;2024-03-06T07:24:17;7.9;75.8
78516;SHT31;67815;51.990;5.688;2024-03-06T07:26:47;7.9;75.7
78516;SHT31;67815;51.990;5.688;2024-03-06T07:29:16;7.9;75.4
78516;SHT31;67815;51.990;5.688;2024-03-06T07:31:46;7.9;75.3
78516;SHT31;67815;51.990;5.688;2024-03-06T07:34:16;8.0;75.2
78516;SHT31;67815;51.990;5.688;2024-03-06T07:36:48;8.0;75.2
78516;SHT31;67815;51.990;5.688;2024-03-06T07:39:19;8.0;75.0
78516;SHT31;67815;51.990;5.688;2024-03-06T07:41:49;8.0;74.6
78516;SHT31;67815;51.990;5.688;2024-03-06T07:44:19;8.0;74.7
78516;SHT31;67815;51.990;5.688;2024-03-06T07:46:49;8.0;74.7
78516;SHT31;67815;51.990;5.688;2024-03-06T07:49:20;8.1;74.5
78516;SHT31;67815;51.990;5.688;2024-03-06T07:51:50;8.1;74.4
78516;SHT31;67815;51.990;5.688;2024-03-06T07:54:21;8.1;74.6
78516;SHT31;67815;51.990;5.688;2024-03-06T07:56:50;8.1;74.9
78516;SHT31;67815;51.990;5.688;2024-03-06T07:59:21;8.1;74.9
78516;SHT31;67815;51.990;5.688;2024-03-06T08:01:50;8.1;74.8
78516;SHT31;67815;51.990;5.688;2024-03-06T08:04:20;8.1;74.7
78516;SHT31;67815;51.990;5.688;2024-03-06T08:06:51;8.1;74.8
78516;SHT31;67815;51.990;5.688;2024-03-06T08:09:20;8.1;75.0
78516;SHT31;67815;51.990;5.688;2024-03-06T08:11:53;8.1;74.9
78516;SHT31;67815;51.990;5.688;2024-03-06T08:14:23;8.1;74.8
78516;SHT31;67815;51.990;5.688;2024-03-06T08:16:52;8.2;74.9
78516;SHT31;67815;51.990;5.688;2024-03-06T08:19:23;8.2;74.7
78516;SHT31;67815;51.990;5.688;2024-03-06T08:21:53;8.2;74.7
78516;SHT31;67815;51.990;5.688;2024-03-06T08:24:23;8.2;74.8
78516;SHT31;67815;51.990;5.688;2024-03-06T08:26:53;8.2;74.8
78516;SHT31;67815;51.990;5.688;2024-03-06T08:29:24;8.2;74.9
78516;SHT31;67815;51.990;5.688;2024-03-06T08:31:55;8.2;75.2
78516;SHT31;67815;51.990;5.688;2024-03-06T08:34:27;8.3;75.5
78516;SHT31;67815;51.990;5.688;2024-03-06T08:36:57;8.3;75.6
78516;SHT31;67815;51.990;5.688;2024-03-06T08:39:27;8.3;75.6
78516;SHT31;67815;51.990;5.688;2024-03-06T08:41:57;8.3;75.6
78516;SHT31;67815;51.990;5.688;2024-03-06T08:44:28;8.3;75.8
78516;SHT31;67815;51.990;5.688;2024-03-06T08:46:58;8.4;75.6
78516;SHT31;67815;51.990;5.688;2024-03-06T08:49:27;8.4;75.7
78516;SHT31;67815;51.990;5.688;2024-03-06T08:51:57;8.4;75.7
78516;SHT31;67815;51.990;5.688;2024-03-06T08:54:26;8.4;75.9
78516;SHT31;67815;51.990;5.688;2024-03-06T08:56:58;8.5;75.8
78516;SHT31;67815;51.990;5.688;2024-03-06T08:59:30;8.5;76.1
78516;SHT31;67815;51.990;5.688;2024-03-06T09:02:17;8.5;75.9
78516;SHT31;67815;51.990;5.688;2024-03-06T09:04:47;8.5;75.9
78516;SHT31;67815;51.990;5.688;2024-03-06T09:07:20;8.6;75.9
78516;SHT31;67815;51.990;5.688;2024-03-06T09:09:51;8.6;76.2
78516;SHT31;67815;51.990;5.688;2024-03-06T09:12:21;8.6;76.5
78516;SHT31;67815;51.990;5.688;2024-03-06T09:14:50;8.6;76.7
78516;SHT31;67815;51.990;5.688;2024-03-06T09:17:22;8.7;76.9
78516;SHT31;67815;51.990;5.688;2024-03-06T09:19:52;8.7;77.2
78516;SHT31;67815;51.990;5.688;2024-03-06T09:22:24;8.8;77.3
78516;SHT31;67815;51.990;5.688;2024-03-06T09:24:53;8.8;77.7
78516;SHT31;67815;51.990;5.688;2024-03-06T09:27:23;8.9;77.5
78516;SHT31;67815;51.990;5.688;2024-03-06T09:29:55;8.9;77.5
78516;SHT31;67815;51.990;5.688;2024-03-06T09:32:24;9.0;77.3
78516;SHT31;67815;51.990;5.688;2024-03-06T09:34:54;9.0;77.5
78516;SHT31;67815;51.990;5.688;2024-03-06T09:37:24;9.1;77.5
78516;SHT31;67815;51.990;5.688;2024-03-06T09:39:54;9.1;77.4
78516;SHT31;67815;51.990;5.688;2024-03-06T09:42:25;9.1;77.2
78516;SHT31;67815;51.990;5.688;2024-03-06T09:44:55;9.2;77.3
78516;SHT31;67815;51.990;5.688;2024-03-06T09:47:32;9.2;77.2
78516;SHT31;67815;51.990;5.688;2024-03-06T09:50:04;9.3;77.8
78516;SHT31;67815;51.990;5.688;2024-03-06T09:52:41;9.4;76.8
78516;SHT31;67815;51.990;5.688;2024-03-06T09:55:14;9.4;76.9
78516;SHT31;67815;51.990;5.688;2024-03-06T09:57:44;9.4;77.4
78516;SHT31;67815;51.990;5.688;2024-03-06T10:00:17;9.5;76.8
78516;SHT31;67815;51.990;5.688;2024-03-06T10:02:56;9.5;76.2
78516;SHT31;67815;51.990;5.688;2024-03-06T10:05:28;9.6;76.1
78516;SHT31;67815;51.990;5.688;2024-03-06T10:08:01;9.6;76.2
78516;SHT31;67815;51.990;5.688;2024-03-06T10:10:32;9.6;76.3
78516;SHT31;67815;51.990;5.688;2024-03-06T10:13:02;9.7;76.6
78516;SHT31;67815;51.990;5.688;2024-03-06T10:15:32;9.7;76.7
78516;SHT31;67815;51.990;5.688;2024-03-06T10:18:14;9.7;75.9
78516;SHT31;67815;51.990;5.688;2024-03-06T10:20:46;9.8;75.7
78516;SHT31;67815;51.990;5.688;2024-03-06T10:23:16;9.8;75.3
78516;SHT31;67815;51.990;5.688;2024-03-06T10:25:47;9.8;75.4
78516;SHT31;67815;51.990;5.688;2024-03-06T10:28:21;9.8;75.5
78516;SHT31;67815;51.990;5.688;2024-03-06T10:31:04;9.8;75.7
78516;SHT31;67815;51.990;5.688;2024-03-06T10:33:36;9.9;75.4
78516;SHT31;67815;51.990;5.688;2024-03-06T10:36:10;9.9;75.6
78516;SHT31;67815;51.990;5.688;2024-03-06T10:38:44;9.9;74.7
78516;SHT31;67815;51.990;5.688;2024-03-06T10:41:15;9.9;74.9
78516;SHT31;67815;51.990;5.688;2024-03-06T10:43:47;9.9;75.1
78516;SHT31;67815;51.990;5.688;2024-03-06T10:46:20;9.9;75.6
78516;SHT31;67815;51.990;5.688;2024-03-06T10:48:52;9.9;76.0
78516;SHT31;67815;51.990;5.688;2024-03-06T10:51:23;9.9;76.2
78516;SHT31;67815;51.990;5.688;2024-03-06T10:53:55;9.9;76.2
78516;SHT31;67815;51.990;5.688;2024-03-06T10:56:26;10.0;75.9
78516;SHT31;67815;51.990;5.688;2024-03-06T10:58:59;10.0;75.9
78516;SHT31;67815;51.990;5.688;2024-03-06T11:01:32;10.0;76.5
78516;SHT31;67815;51.990;5.688;2024-03-06T11:04:02;10.1;75.8
78516;SHT31;67815;51.990;5.688;2024-03-06T11:06:34;10.1;75.8
78516;SHT31;67815;51.990;5.688;2024-03-06T11:09:05;10.2;76.1
78516;SHT31;67815;51.990;5.688;2024-03-06T11:11:50;10.2;76.0
78516;SHT31;67815;51.990;5.688;2024-03-06T11:14:23;10.2;74.7
78516;SHT31;67815;51.990;5.688;2024-03-06T11:17:01;10.3;74.8
78516;SHT31;67815;51.990;5.688;2024-03-06T11:19:33;10.3;74.8
78516;SHT31;67815;51.990;5.688;2024-03-06T11:22:07;10.4;74.5
78516;SHT31;67815;51.990;5.688;2024-03-06T11:24:36;10.4;74.1
78516;SHT31;67815;51.990;5.688;2024-03-06T11:27:06;10.4;74.2
78516;SHT31;67815;51.990;5.688;2024-03-06T11:30:06;10.5;73.5
78516;SHT31;67815;51.990;5.688;2024-03-06T11:32:59;10.5;73.9
78516;SHT31;67815;51.990;5.688;2024-03-06T11:35:31;10.5;74.1
78516;SHT31;67815;51.990;5.688;2024-03-06T11:38:01;10.6;73.4
78516;SHT31;67815;51.990;5.688;2024-03-06T11:40:31;10.6;73.2
78516;SHT31;67815;51.990;5.688;2024-03-06T11:43:24;10.6;72.9
78516;SHT31;67815;51.990;5.688;2024-03-06T11:46:09;10.6;73.9
78516;SHT31;67815;51.990;5.688;2024-03-06T11:48:40;10.6;72.8
78516;SHT31;67815;51.990;5.688;2024-03-06T11:51:12;10.7;72.3
78516;SHT31;67815;51.990;5.688;2024-03-06T11:53:42;10.7;72.7
78516;SHT31;67815;51.990;5.688;2024-03-06T11:56:12;10.7;73.5
78516;SHT31;67815;51.990;5.688;2024-03-06T11:58:42;10.7;73.4
78516;SHT31;67815;51.990;5.688;2024-03-06T12:01:12;10.8;73.0
78516;SHT31;67815;51.990;5.688;2024-03-06T12:03:42;10.8;73.7
78516;SHT31;67815;51.990;5.688;2024-03-06T12:06:15;10.8;72.8
78516;SHT31;67815;51.990;5.688;2024-03-06T12:08:46;10.9;73.4
78516;SHT31;67815;51.990;5.688;2024-03-06T12:11:16;10.9;72.6
78516;SHT31;67815;51.990;5.688;2024-03-06T12:13:48;10.9;71.6
78516;SHT31;67815;51.990;5.688;2024-03-06T12:16:18;11.0;71.8
78516;SHT31;67815;51.990;5.688;2024-03-06T12:18:58;11.0;72.7
78516;SHT31;67815;51.990;5.688;2024-03-06T12:21:33;11.0;73.2
78516;SHT31;67815;51.990;5.688;2024-03-06T12:24:07;11.1;72.8
78516;SHT31;67815;51.990;5.688;2024-03-06T12:26:39;11.1;73.4
78516;SHT31;67815;51.990;5.688;2024-03-06T12:29:11;11.1;72.8
78516;SHT31;67815;51.990;5.688;2024-03-06T12:31:42;11.2;71.9
78516;SHT31;67815;51.990;5.688;2024-03-06T12:34:14;11.2;71.0
78516;SHT31;67815;51.990;5.688;2024-03-06T12:36:46;11.2;71.5
78516;SHT31;67815;51.990;5.688;2024-03-06T12:39:17;11.2;72.3
78516;SHT31;67815;51.990;5.688;2024-03-06T12:41:51;11.3;72.4
78516;SHT31;67815;51.990;5.688;2024-03-06T12:44:22;11.3;69.9
78516;SHT31;67815;51.990;5.688;2024-03-06T12:46:53;11.4;69.9
78516;SHT31;67815;51.990;5.688;2024-03-06T12:49:23;11.4;70.1
78516;SHT31;67815;51.990;5.688;2024-03-06T12:51:52;11.4;70.5
78516;SHT31;67815;51.990;5.688;2024-03-06T12:54:23;11.5;71.7
78516;SHT31;67815;51.990;5.688;2024-03-06T12:56:53;11.6;69.8
78516;SHT31;67815;51.990;5.688;2024-03-06T12:59:24;11.6;70.9
78516;SHT31;67815;51.990;5.688;2024-03-06T13:01:53;11.7;69.9
78516;SHT31;67815;51.990;5.688;2024-03-06T13:04:24;11.7;70.2
78516;SHT31;67815;51.990;5.688;2024-03-06T13:06:54;11.8;69.1
78516;SHT31;67815;51.990;5.688;2024-03-06T13:09:24;11.8;68.9
78516;SHT31;67815;51.990;5.688;2024-03-06T13:11:54;11.9;68.0
78516;SHT31;67815;51.990;5.688;2024-03-06T13:14:23;11.9;67.4
78516;SHT31;67815;51.990;5.688;2024-03-06T13:16:53;12.0;67.3
78516;SHT31;67815;51.990;5.688;2024-03-06T13:19:24;12.1;64.3
78516;SHT31;67815;51.990;5.688;2024-03-06T13:21:53;12.1;65.2
78516;SHT31;67815;51.990;5.688;2024-03-06T13:24:25;12.2;65.1
78516;SHT31;67815;51.990;5.688;2024-03-06T13:26:55;12.2;62.6
78516;SHT31;67815;51.990;5.688;2024-03-06T13:29:24;12.2;62.3
78516;SHT31;67815;51.990;5.688;2024-03-06T13:31:54;12.3;63.0
78516;SHT31;67815;51.990;5.688;2024-03-06T13:34:23;12.3;64.0
78516;SHT31;67815;51.990;5.688;2024-03-06T13:36:53;12.4;64.4
78516;SHT31;67815;51.990;5.688;2024-03-06T13:39:22;12.4;64.6
78516;SHT31;67815;51.990;5.688;2024-03-06T13:41:52;12.4;62.1
78516;SHT31;67815;51.990;5.688;2024-03-06T13:44:22;12.4;62.0
78516;SHT31;67815;51.990;5.688;2024-03-06T13:46:51;12.5;61.2
78516;SHT31;67815;51.990;5.688;2024-03-06T13:49:36;12.5;62.7
78516;SHT31;67815;51.990;5.688;2024-03-06T13:52:09;12.5;62.8
78516;SHT31;67815;51.990;5.688;2024-03-06T13:54:42;12.6;62.5
78516;SHT31;67815;51.990;5.688;2024-03-06T13:57:13;12.6;62.0
78516;SHT31;67815;51.990;5.688;2024-03-06T13:59:43;12.7;62.7
78516;SHT31;67815;51.990;5.688;2024-03-06T14:02:12;12.7;62.1
78516;SHT31;67815;51.990;5.688;2024-03-06T14:04:42;12.7;62.3
78516;SHT31;67815;51.990;5.688;2024-03-06T14:07:12;12.8;62.3
78516;SHT31;67815;51.990;5.688;2024-03-06T14:09:42;12.8;62.0
78516;SHT31;67815;51.990;5.688;2024-03-06T14:12:12;12.9;61.5
78516;SHT31;67815;51.990;5.688;2024-03-06T14:14:43;12.9;61.2
78516;SHT31;67815;51.990;5.688;2024-03-06T14:17:12;13.0;61.0
78516;SHT31;67815;51.990;5.688;2024-03-06T14:19:42;13.0;62.3
78516;SHT31;67815;51.990;5.688;2024-03-06T14:22:13;13.1;61.8
78516;SHT31;67815;51.990;5.688;2024-03-06T14:24:44;13.1;60.7
78516;SHT31;67815;51.990;5.688;2024-03-06T14:27:14;13.1;60.4
78516;SHT31;67815;51.990;5.688;2024-03-06T14:29:44;13.2;58.7
78516;SHT31;67815;51.990;5.688;2024-03-06T14:32:14;13.2;58.3
78516;SHT31;67815;51.990;5.688;2024-03-06T14:34:44;13.2;57.6
78516;SHT31;67815;51.990;5.688;2024-03-06T14:37:15;13.3;59.5
78516;SHT31;67815;51.990;5.688;2024-03-06T14:39:45;13.3;58.4
78516;SHT31;67815;51.990;5.688;2024-03-06T14:42:15;13.3;56.8
78516;SHT31;67815;51.990;5.688;2024-03-06T14:44:46;13.3;57.3
78516;SHT31;67815;51.990;5.688;2024-03-06T14:47:16;13.4;57.8
78516;SHT31;67815;51.990;5.688;2024-03-06T14:49:45;13.4;57.3
78516;SHT31;67815;51.990;5.688;2024-03-06T14:52:15;13.4;57.5
78516;SHT31;67815;51.990;5.688;2024-03-06T14:54:47;13.4;57.4
78516;SHT31;67815;51.990;5.688;2024-03-06T14:57:17;13.4;56.5
78516;SHT31;67815;51.990;5.688;2024-03-06T14:59:46;13.5;57.2
78516;SHT31;67815;51.990;5.688;2024-03-06T15:02:16;13.5;57.6
78516;SHT31;67815;51.990;5.688;2024-03-06T15:04:45;13.5;57.2
78516;SHT31;67815;51.990;5.688;2024-03-06T15:07:15;13.5;56.3
78516;SHT31;67815;51.990;5.688;2024-03-06T15:09:46;13.5;56.7
78516;SHT31;67815;51.990;5.688;2024-03-06T15:12:15;13.5;56.7
78516;SHT31;67815;51.990;5.688;2024-03-06T15:14:45;13.5;57.7
78516;SHT31;67815;51.990;5.688;2024-03-06T15:17:16;13.5;55.5
78516;SHT31;67815;51.990;5.688;2024-03-06T15:19:45;13.6;56.7
78516;SHT31;67815;51.990;5.688;2024-03-06T15:22:16;13.6;56.4
78516;SHT31;67815;51.990;5.688;2024-03-06T15:24:48;13.6;54.9
78516;SHT31;67815;51.990;5.688;2024-03-06T15:27:17;13.6;56.2
78516;SHT31;67815;51.990;5.688;2024-03-06T15:29:47;13.6;57.2
78516;SHT31;67815;51.990;5.688;2024-03-06T15:32:18;13.6;57.1
78516;SHT31;67815;51.990;5.688;2024-03-06T15:34:48;13.6;55.9
78516;SHT31;67815;51.990;5.688;2024-03-06T15:37:19;13.6;56.7
78516;SHT31;67815;51.990;5.688;2024-03-06T15:39:53;13.6;56.0
78516;SHT31;67815;51.990;5.688;2024-03-06T15:42:24;13.5;56.4
78516;SHT31;67815;51.990;5.688;2024-03-06T15:44:54;13.5;56.1
78516;SHT31;67815;51.990;5.688;2024-03-06T15:47:23;13.5;57.0
78516;SHT31;67815;51.990;5.688;2024-03-06T15:49:53;13.5;56.5
78516;SHT31;67815;51.990;5.688;2024-03-06T15:52:23;13.5;57.0
78516;SHT31;67815;51.990;5.688;2024-03-06T15:54:55;13.5;57.5
78516;SHT31;67815;51.990;5.688;2024-03-06T15:57:25;13.4;57.0
78516;SHT31;67815;51.990;5.688;2024-03-06T15:59:55;13.4;56.8
78516;SHT31;67815;51.990;5.688;2024-03-06T16:02:26;13.4;57.2
78516;SHT31;67815;51.990;5.688;2024-03-06T16:04:56;13.4;57.9
78516;SHT31;67815;51.990;5.688;2024-03-06T16:07:25;13.3;58.1
78516;SHT31;67815;51.990;5.688;2024-03-06T16:09:55;13.3;59.1
78516;SHT31;67815;51.990;5.688;2024-03-06T16:12:24;13.3;59.2
78516;SHT31;67815;51.990;5.688;2024-03-06T16:14:55;13.2;59.3
78516;SHT31;67815;51.990;5.688;2024-03-06T16:17:24;13.2;60.0
78516;SHT31;67815;51.990;5.688;2024-03-06T16:19:55;13.2;60.4
78516;SHT31;67815;51.990;5.688;2024-03-06T16:22:25;13.2;59.8
78516;SHT31;67815;51.990;5.688;2024-03-06T16:24:54;13.1;59.7
78516;SHT31;67815;51.990;5.688;2024-03-06T16:27:24;13.1;60.2
78516;SHT31;67815;51.990;5.688;2024-03-06T16:29:55;13.1;60.1
78516;SHT31;67815;51.990;5.688;2024-03-06T16:32:25;13.0;61.2
78516;SHT31;67815;51.990;5.688;2024-03-06T16:34:55;13.0;59.5
78516;SHT31;67815;51.990;5.688;2024-03-06T16:37:25;13.0;60.7